CMA CGM Kingfish — A8YW9 — position and weather

sailwx.info

Track history (hours):
 
Tides and Currents Weather Stations Pressure Air Temp Water Temp Dewpoint Dewpoint Depression Visibility Wind Speed Wind Dir Waves Ship Positions

CMA CGM Kingfish

Last reported at 2014-Oct-18 06:34 UTC. Time now 2014-Oct-30 17:30 UTC.
Position N 36°04' E 014°56'.
Warning: this ship's position is 12 days out of date.

Length 294 m; draft 12.4 m.

Type: Ship (hazmat cat A). MMSI: 636015147.

Date/timePositionNaut miles runAvg speedWind from/ knotsBaromVisibWave heightAir tempDewpointWater temp
2014-Oct-18 06:34N 36°04' E 014°56'1514.8
2014-Oct-18 05:34N 36°08' E 014°39'1515.1
2014-Oct-18 04:33N 36°13' E 014°21'1514.9
2014-Oct-18 03:33N 36°19' E 014°04'1514.6
2014-Oct-18 02:33N 36°26' E 013°48'1514.6
2014-Oct-18 01:33N 36°31' E 013°31'1414.4
2014-Oct-18 00:34N 36°38' E 013°15'1414.3
2014-Oct-17 23:33N 36°43' E 012°59'1414.4
2014-Oct-17 22:33N 36°49' E 012°43'1514.7
2014-Oct-17 21:33N 36°55' E 012°26'1515.0
2014-Oct-17 20:34N 37°02' E 012°09'1514.9
2014-Oct-17 19:33N 37°08' E 011°51'2115.0
2014-Oct-17 18:09N 37°16' E 011°27'4015.3
2014-Oct-17 15:33N 37°28' E 010°39'1615.8
2014-Oct-17 14:33N 37°32' E 010°20'2416.8
2014-Oct-17 13:06N 37°32' E 009°49'916.1
2014-Oct-17 12:32N 37°30' E 009°38'1616.2
2014-Oct-17 11:33N 37°26' E 009°19'1616.2
2014-Oct-17 10:33N 37°22' E 008°59'1616.0
2014-Oct-17 09:33N 37°19' E 008°39'1715.4
2014-Oct-17 08:27N 37°18' E 008°18'1415.9
2014-Oct-17 07:33N 37°17' E 007°60'1716.0
2014-Oct-17 06:31N 37°17' E 007°39'62115.9
2014-Oct-15 15:22N 35°59' W 005°09'1619.3
2014-Oct-15 14:34N 35°57' W 005°28'  
2014-Oct-13 01:25N 39°05' W 025°16'1415.7
2014-Oct-13 00:33N 39°07' W 025°33'4915.7
2014-Oct-12 21:25N 39°12' W 026°36'1315.7
2014-Oct-12 20:33N 39°14' W 026°53'1615.9
2014-Oct-12 19:33N 39°16' W 027°14'1616.1
2014-Oct-12 18:33N 39°18' W 027°35'1615.8
2014-Oct-12 17:33N 39°19' W 027°55'1615.5
2014-Oct-12 16:33N 39°19' W 028°15'1515.4
2014-Oct-12 15:33N 39°18' W 028°35'1615.6
2014-Oct-12 14:33N 39°17' W 028°55'1615.9
2014-Oct-12 13:33N 39°16' W 029°15'1615.6
2014-Oct-12 12:33N 39°15' W 029°35'  
Track history (hours):
 
Tides and Currents Weather Stations Pressure Air Temp Water Temp Dewpoint Dewpoint Depression Visibility Wind Speed Wind Dir Waves Ship Positions

CMA CGM Kingfish

Last reported at 2014-Oct-18 06:34 UTC. Time now 2014-Oct-30 17:30 UTC.
Position N 36°04' E 014°56'.
Warning: this ship's position is 12 days out of date.

Length 294 m; draft 12.4 m.

Type: Ship (hazmat cat A). MMSI: 636015147.

Date/timePositionNaut miles runAvg speedWind from/ knotsBaromVisibWave heightAir tempDewpointWater temp
2014-Oct-18 06:34N 36°04' E 014°56'1514.8
2014-Oct-18 05:34N 36°08' E 014°39'1515.1
2014-Oct-18 04:33N 36°13' E 014°21'1514.9
2014-Oct-18 03:33N 36°19' E 014°04'1514.6
2014-Oct-18 02:33N 36°26' E 013°48'1514.6
2014-Oct-18 01:33N 36°31' E 013°31'1414.4
2014-Oct-18 00:34N 36°38' E 013°15'1414.3
2014-Oct-17 23:33N 36°43' E 012°59'1414.4
2014-Oct-17 22:33N 36°49' E 012°43'1514.7
2014-Oct-17 21:33N 36°55' E 012°26'1515.0
2014-Oct-17 20:34N 37°02' E 012°09'1514.9
2014-Oct-17 19:33N 37°08' E 011°51'2115.0
2014-Oct-17 18:09N 37°16' E 011°27'4015.3
2014-Oct-17 15:33N 37°28' E 010°39'1615.8
2014-Oct-17 14:33N 37°32' E 010°20'2416.8
2014-Oct-17 13:06N 37°32' E 009°49'916.1
2014-Oct-17 12:32N 37°30' E 009°38'1616.2
2014-Oct-17 11:33N 37°26' E 009°19'1616.2
2014-Oct-17 10:33N 37°22' E 008°59'1616.0
2014-Oct-17 09:33N 37°19' E 008°39'1715.4
2014-Oct-17 08:27N 37°18' E 008°18'1415.9
2014-Oct-17 07:33N 37°17' E 007°60'1716.0
2014-Oct-17 06:31N 37°17' E 007°39'62115.9
2014-Oct-15 15:22N 35°59' W 005°09'1619.3
2014-Oct-15 14:34N 35°57' W 005°28'  
2014-Oct-13 01:25N 39°05' W 025°16'1415.7
2014-Oct-13 00:33N 39°07' W 025°33'4915.7
2014-Oct-12 21:25N 39°12' W 026°36'1315.7
2014-Oct-12 20:33N 39°14' W 026°53'1615.9
2014-Oct-12 19:33N 39°16' W 027°14'1616.1
2014-Oct-12 18:33N 39°18' W 027°35'1615.8
2014-Oct-12 17:33N 39°19' W 027°55'1615.5
2014-Oct-12 16:33N 39°19' W 028°15'1515.4
2014-Oct-12 15:33N 39°18' W 028°35'1615.6
2014-Oct-12 14:33N 39°17' W 028°55'1615.9
2014-Oct-12 13:33N 39°16' W 029°15'1615.6
2014-Oct-12 12:33N 39°15' W 029°35'  

Dump ship's entire track history